createdAt,value
2018-06-04T00:00:13.584Z,19.47
2018-06-04T00:02:41.983Z,18.93
2018-06-04T00:05:10.446Z,21.07
2018-06-04T00:07:38.762Z,19.73
2018-06-04T00:10:08.708Z,20.40
2018-06-04T00:12:37.020Z,19.67
2018-06-04T00:15:05.832Z,21.67
2018-06-04T00:17:34.119Z,23.70
2018-06-04T00:20:02.403Z,18.27
2018-06-04T00:22:30.862Z,19.57
2018-06-04T00:24:59.222Z,21.00
2018-06-04T00:27:27.570Z,22.10
2018-06-04T00:29:55.831Z,20.13
2018-06-04T00:32:24.215Z,20.20
2018-06-04T00:34:52.512Z,19.90
2018-06-04T00:37:20.818Z,21.90
2018-06-04T00:39:49.075Z,20.60
2018-06-04T00:42:17.430Z,20.90
2018-06-04T00:44:45.719Z,23.47
2018-06-04T00:47:14.003Z,18.40
2018-06-04T00:49:42.282Z,19.50
2018-06-04T00:52:10.595Z,22.07
2018-06-04T00:54:38.889Z,20.60
2018-06-04T00:57:07.578Z,21.57
2018-06-04T00:59:35.899Z,23.70
2018-06-04T01:02:04.194Z,19.07
2018-06-04T01:04:32.466Z,19.73
2018-06-04T01:07:00.799Z,20.37
2018-06-04T01:09:29.122Z,20.10
2018-06-04T01:11:57.501Z,19.03
2018-06-04T01:14:25.789Z,18.93
2018-06-04T01:16:54.101Z,20.07
2018-06-04T01:19:22.423Z,17.37
2018-06-04T01:21:50.749Z,19.37
2018-06-04T01:24:19.131Z,20.30
2018-06-04T01:26:47.425Z,19.20
2018-06-04T01:29:15.794Z,19.77
2018-06-04T01:31:44.127Z,21.53
2018-06-04T01:34:12.398Z,21.83
2018-06-04T01:36:40.726Z,23.57
2018-06-04T01:39:09.106Z,21.47
2018-06-04T01:41:37.406Z,22.23
2018-06-04T01:44:05.729Z,21.70
2018-06-04T01:46:34.027Z,17.50
2018-06-04T01:49:02.299Z,21.73
2018-06-04T01:51:30.591Z,18.73
2018-06-04T01:53:58.986Z,21.30
2018-06-04T01:56:27.394Z,20.43
2018-06-04T01:58:55.701Z,19.33
2018-06-04T02:01:24.091Z,19.50
2018-06-04T02:03:52.387Z,19.80
2018-06-04T02:06:20.679Z,22.20
2018-06-04T02:08:48.939Z,20.07
2018-06-04T02:11:17.258Z,21.03
2018-06-04T02:13:45.527Z,17.70
2018-06-04T02:16:13.918Z,20.20
2018-06-04T02:18:42.191Z,20.50
2018-06-04T02:21:10.482Z,20.17
2018-06-04T02:23:38.754Z,23.63
2018-06-04T02:26:06.686Z,21.87
2018-06-04T02:28:35.009Z,20.33
2018-06-04T02:31:03.350Z,21.63
2018-06-04T02:33:31.652Z,22.83
2018-06-04T02:35:59.999Z,24.63
2018-06-04T02:38:28.268Z,22.77
2018-06-04T02:40:56.591Z,22.37
2018-06-04T02:43:24.863Z,19.57
2018-06-04T02:45:53.208Z,20.83
2018-06-04T02:48:21.503Z,18.70
2018-06-04T02:50:49.906Z,18.47
2018-06-04T02:53:18.216Z,18.30
2018-06-04T02:55:46.521Z,19.87
2018-06-04T02:58:14.837Z,21.03
2018-06-04T03:00:43.705Z,23.97
2018-06-04T03:03:12.005Z,22.07
2018-06-04T03:05:40.326Z,22.50
2018-06-04T03:08:08.632Z,22.33
2018-06-04T03:10:36.902Z,25.97
2018-06-04T03:13:05.590Z,24.63
2018-06-04T03:15:33.961Z,23.13
2018-06-04T03:18:02.247Z,24.33
2018-06-04T03:20:30.547Z,21.13
2018-06-04T03:22:58.875Z,24.30
2018-06-04T03:25:27.145Z,23.30
2018-06-04T03:27:55.443Z,23.27
2018-06-04T03:30:23.811Z,22.03
2018-06-04T03:32:52.120Z,24.77
2018-06-04T03:35:20.427Z,21.80
2018-06-04T03:37:48.745Z,20.27
2018-06-04T03:40:17.006Z,21.77
2018-06-04T03:42:45.293Z,23.17
2018-06-04T03:45:13.598Z,22.90
2018-06-04T03:47:41.902Z,23.87
2018-06-04T03:50:10.208Z,24.83
2018-06-04T03:52:38.544Z,23.07
2018-06-04T03:55:06.900Z,22.50
2018-06-04T03:57:35.335Z,21.83
2018-06-04T04:00:03.655Z,21.43
2018-06-04T04:02:31.964Z,20.83
2018-06-04T04:05:00.251Z,21.33
2018-06-04T04:07:28.554Z,23.13
2018-06-04T04:09:56.839Z,20.10
2018-06-04T04:12:26.719Z,20.97
2018-06-04T04:14:55.007Z,20.67
2018-06-04T04:17:23.290Z,22.40
2018-06-04T04:19:51.599Z,21.73
2018-06-04T04:22:19.890Z,20.90
2018-06-04T04:24:48.162Z,22.03
2018-06-04T04:27:16.446Z,21.80
2018-06-04T04:29:44.756Z,24.20
2018-06-04T04:32:13.031Z,24.00
2018-06-04T04:34:41.354Z,24.17
2018-06-04T04:37:09.770Z,23.47
2018-06-04T04:39:38.038Z,24.83
2018-06-04T04:42:06.356Z,24.80
2018-06-04T04:44:34.648Z,22.33
2018-06-04T04:47:02.932Z,21.77
2018-06-04T04:49:31.215Z,23.17
2018-06-04T04:51:59.971Z,23.47
2018-06-04T04:54:28.272Z,26.03
2018-06-04T04:56:56.567Z,26.83
2018-06-04T04:59:24.898Z,23.90
2018-06-04T05:01:53.261Z,25.50
2018-06-04T05:04:21.666Z,24.13
2018-06-04T05:06:49.948Z,26.10
2018-06-04T05:09:18.228Z,26.37
2018-06-04T05:11:46.607Z,28.97
2018-06-04T05:14:14.910Z,27.67
2018-06-04T05:16:44.116Z,26.07
2018-06-04T05:19:12.414Z,30.63
2018-06-04T05:21:40.728Z,27.27
2018-06-04T05:24:09.030Z,27.13
2018-06-04T05:26:37.320Z,27.37
2018-06-04T05:29:05.823Z,25.47
2018-06-04T05:31:34.090Z,25.17
2018-06-04T05:34:02.375Z,25.33
2018-06-04T05:36:30.745Z,26.33
2018-06-04T05:38:59.033Z,25.83
2018-06-04T05:41:27.303Z,26.77
2018-06-04T05:43:55.589Z,29.50
2018-06-04T05:46:23.883Z,32.00
2018-06-04T05:48:52.215Z,30.67
2018-06-04T05:51:20.606Z,28.90
2018-06-04T05:53:48.903Z,30.23
2018-06-04T05:56:17.206Z,26.20
2018-06-04T05:58:46.072Z,30.53
2018-06-04T06:01:14.368Z,27.60
2018-06-04T06:03:42.657Z,25.77
2018-06-04T06:06:10.998Z,22.57
2018-06-04T06:08:39.287Z,30.47
2018-06-04T06:11:07.730Z,31.90
2018-06-04T06:13:36.055Z,29.17
2018-06-04T06:16:04.364Z,34.90
2018-06-04T06:18:32.659Z,33.20
2018-06-04T06:21:01.040Z,32.00
2018-06-04T06:23:29.862Z,32.40
2018-06-04T06:25:58.202Z,28.27
2018-06-04T06:28:26.599Z,29.60
2018-06-04T06:30:54.995Z,34.23
2018-06-04T06:33:23.369Z,35.90
2018-06-04T06:35:51.711Z,33.57
2018-06-04T06:38:20.073Z,35.37
2018-06-04T06:40:48.364Z,33.37
2018-06-04T06:43:16.715Z,36.50
2018-06-04T06:45:45.117Z,37.97
2018-06-04T06:48:13.543Z,36.83
2018-06-04T06:50:41.867Z,35.10
2018-06-04T06:53:10.337Z,36.50
2018-06-04T06:55:38.626Z,32.60
2018-06-04T06:58:06.909Z,34.10
2018-06-04T07:00:35.207Z,29.53
2018-06-04T07:03:03.472Z,27.20
2018-06-04T07:05:31.791Z,30.87
2018-06-04T07:08:00.067Z,35.93
2018-06-04T07:10:28.410Z,32.17
2018-06-04T07:12:56.808Z,28.27
2018-06-04T07:15:25.092Z,31.27
2018-06-04T07:17:53.417Z,31.70
2018-06-04T07:20:21.807Z,33.73
2018-06-04T07:22:50.113Z,30.73
2018-06-04T07:25:18.456Z,30.57
2018-06-04T07:27:46.767Z,29.17
2018-06-04T07:30:15.048Z,30.07
2018-06-04T07:32:43.324Z,31.93
2018-06-04T07:35:11.612Z,33.13
2018-06-04T07:37:39.908Z,28.07
2018-06-04T07:40:08.186Z,30.00
2018-06-04T07:42:36.503Z,31.17
2018-06-04T07:45:04.818Z,27.73
2018-06-04T07:47:33.399Z,29.57
2018-06-04T07:50:02.163Z,26.75
2018-06-04T07:52:30.883Z,26.65
2018-06-04T07:54:59.187Z,29.57
2018-06-04T07:57:27.460Z,28.70
2018-06-04T07:59:55.746Z,29.90
2018-06-04T08:02:24.076Z,25.62
2018-06-04T08:04:52.376Z,25.90
2018-06-04T08:07:20.635Z,28.53
2018-06-04T08:09:48.986Z,28.98
2018-06-04T08:12:17.287Z,27.60
2018-06-04T08:14:45.569Z,27.70
2018-06-04T08:17:13.895Z,29.07
2018-06-04T08:19:42.166Z,30.48
2018-06-04T08:22:10.444Z,28.17
2018-06-04T08:24:38.818Z,24.70
2018-06-04T08:27:07.089Z,26.65
2018-06-04T08:29:35.392Z,28.27
2018-06-04T08:32:03.745Z,26.48
2018-06-04T08:34:32.091Z,28.52
2018-06-04T08:37:00.459Z,28.30
2018-06-04T08:39:28.751Z,30.23
2018-06-04T08:41:57.047Z,31.12
2018-06-04T08:44:25.314Z,33.53
2018-06-04T08:46:53.596Z,34.55
2018-06-04T08:49:21.906Z,36.60
2018-06-04T08:51:50.207Z,31.02
2018-06-04T08:54:18.476Z,31.60
2018-06-04T08:56:46.775Z,30.30
2018-06-04T08:59:15.052Z,33.33
2018-06-04T09:01:44.031Z,32.88
2018-06-04T09:04:12.316Z,33.05
2018-06-04T09:06:40.631Z,34.27
2018-06-04T09:09:08.906Z,31.27
2018-06-04T09:11:37.217Z,31.33
2018-06-04T09:14:05.514Z,30.97
2018-06-04T09:16:33.815Z,32.55
2018-06-04T09:19:02.109Z,31.27
2018-06-04T09:21:30.394Z,35.43
2018-06-04T09:23:58.926Z,32.23
2018-06-04T09:26:27.203Z,32.85
2018-06-04T09:28:55.505Z,33.00
2018-06-04T09:31:23.811Z,31.95
2018-06-04T09:33:52.123Z,32.78
2018-06-04T09:36:20.951Z,33.15
2018-06-04T09:38:49.243Z,30.60
2018-06-04T09:41:17.521Z,34.10
2018-06-04T09:43:45.919Z,29.37
2018-06-04T09:46:14.443Z,27.52
2018-06-04T09:48:43.183Z,28.27
2018-06-04T09:51:11.527Z,27.27
2018-06-04T09:53:39.803Z,27.27
2018-06-04T09:56:08.110Z,25.90
2018-06-04T09:58:36.387Z,29.20
2018-06-04T10:01:04.740Z,27.48
2018-06-04T10:03:33.010Z,28.67
2018-06-04T10:06:01.291Z,28.47
2018-06-04T10:08:29.631Z,28.27
2018-06-04T10:10:58.226Z,30.00
2018-06-04T10:13:26.519Z,25.82
2018-06-04T10:15:54.798Z,25.90
2018-06-04T10:18:23.075Z,27.13
2018-06-04T10:20:51.545Z,28.47
2018-06-04T10:23:20.211Z,24.15
2018-06-04T10:25:48.499Z,23.90
2018-06-04T10:28:16.772Z,27.62
2018-06-04T10:30:45.046Z,24.52
2018-06-04T10:33:13.315Z,22.62
2018-06-04T10:35:41.577Z,21.70
2018-06-04T10:38:09.886Z,24.15
2018-06-04T10:40:38.211Z,26.10
2018-06-04T10:43:06.763Z,22.45
2018-06-04T10:45:35.047Z,22.55
2018-06-04T10:48:03.367Z,22.62
2018-06-04T10:50:31.663Z,23.25
2018-06-04T10:52:59.951Z,21.00
2018-06-04T10:55:28.240Z,19.77
2018-06-04T10:57:56.511Z,19.40
2018-06-04T11:00:24.774Z,19.02
2018-06-04T11:02:53.126Z,18.60
2018-06-04T11:05:21.395Z,22.22
2018-06-04T11:07:49.677Z,17.02
2018-06-04T11:10:17.932Z,18.85
2018-06-04T11:12:46.243Z,19.05
2018-06-04T11:15:14.504Z,18.70
2018-06-04T11:17:42.797Z,17.20
2018-06-04T11:20:11.073Z,18.87
2018-06-04T11:22:39.369Z,22.10
2018-06-04T11:25:07.639Z,17.10
2018-06-04T11:27:36.014Z,16.77
2018-06-04T11:30:04.885Z,15.68
2018-06-04T11:32:33.166Z,14.38
2018-06-04T11:35:01.432Z,15.45
2018-06-04T11:37:29.765Z,16.37
2018-06-04T11:39:58.052Z,14.53
2018-06-04T11:42:26.354Z,14.28
2018-06-04T11:44:54.639Z,14.50
2018-06-04T11:47:22.923Z,13.72
2018-06-04T11:49:51.338Z,14.60
2018-06-04T11:52:19.627Z,13.60
2018-06-04T11:54:48.082Z,14.05
2018-06-04T11:57:16.359Z,13.95
2018-06-04T11:59:44.620Z,17.00
2018-06-04T12:02:12.943Z,15.08
2018-06-04T12:04:41.323Z,12.82
2018-06-04T12:07:09.850Z,11.63
2018-06-04T12:09:38.166Z,12.73
2018-06-04T12:12:06.478Z,11.90
2018-06-04T12:14:34.743Z,12.80
2018-06-04T12:17:03.158Z,12.18
2018-06-04T12:19:31.439Z,12.63
2018-06-04T12:21:59.722Z,11.35
2018-06-04T12:24:28.079Z,11.33
2018-06-04T12:26:56.429Z,10.58
2018-06-04T12:29:24.735Z,11.43
2018-06-04T12:31:53.120Z,12.88
2018-06-04T12:34:21.402Z,13.90
2018-06-04T12:36:49.677Z,11.33
2018-06-04T12:39:17.961Z,10.18
2018-06-04T12:41:46.465Z,11.25
2018-06-04T12:44:14.781Z,11.50
2018-06-04T12:46:43.038Z,12.95
2018-06-04T12:49:11.398Z,12.50
2018-06-04T12:51:40.646Z,13.38
2018-06-04T12:54:08.980Z,13.18
2018-06-04T12:56:37.331Z,11.70
2018-06-04T12:59:05.682Z,13.35
2018-06-04T13:01:33.954Z,11.08
2018-06-04T13:04:02.252Z,10.68
2018-06-04T13:06:31.492Z,13.13
2018-06-04T13:08:59.775Z,28.10
2018-06-04T13:11:28.074Z,33.05
2018-06-04T13:13:56.374Z,11.90
2018-06-04T13:16:24.662Z,11.75
2018-06-04T13:18:52.963Z,28.23
2018-06-04T13:21:21.225Z,14.73
2018-06-04T13:23:49.518Z,12.65
2018-06-04T13:26:17.782Z,10.60
2018-06-04T13:28:46.055Z,10.82
2018-06-04T13:31:14.318Z,10.68
2018-06-04T13:33:42.632Z,11.70
2018-06-04T13:36:10.893Z,11.12
2018-06-04T13:38:39.179Z,11.48
2018-06-04T13:41:07.466Z,11.03
2018-06-04T13:43:35.750Z,11.40
2018-06-04T13:46:04.015Z,11.12
2018-06-04T13:48:32.293Z,13.70
2018-06-04T13:51:00.576Z,15.28
2018-06-04T13:53:28.945Z,11.35
2018-06-04T13:55:57.337Z,10.00
2018-06-04T13:58:25.624Z,18.35
2018-06-04T14:00:53.894Z,12.82
2018-06-04T14:03:22.342Z,10.70
2018-06-04T14:05:50.728Z,11.68
2018-06-04T14:08:19.035Z,27.17
2018-06-04T14:10:47.362Z,11.22
2018-06-04T14:13:15.669Z,29.90
2018-06-04T14:15:43.944Z,19.77
2018-06-04T14:18:12.242Z,17.30
2018-06-04T14:20:40.522Z,13.22
2018-06-04T14:23:08.822Z,11.20
2018-06-04T14:25:37.422Z,12.93
2018-06-04T14:28:05.738Z,12.55
2018-06-04T14:30:34.022Z,12.50
2018-06-04T14:33:02.294Z,14.75
2018-06-04T14:35:30.571Z,12.68
2018-06-04T14:37:58.830Z,11.90
2018-06-04T14:40:27.123Z,13.95
2018-06-04T14:42:55.394Z,12.63
2018-06-04T14:45:23.683Z,13.15
2018-06-04T14:47:51.993Z,13.00
2018-06-04T14:50:20.375Z,14.30
2018-06-04T14:52:48.662Z,13.68
2018-06-04T14:55:16.959Z,11.33
2018-06-04T14:57:45.227Z,13.50
2018-06-04T15:00:13.578Z,12.28
2018-06-04T15:02:41.873Z,11.88
2018-06-04T15:05:10.166Z,12.35
2018-06-04T15:07:38.442Z,13.58
2018-06-04T15:10:06.730Z,12.10
2018-06-04T15:12:35.026Z,12.73
2018-06-04T15:15:03.370Z,13.85
2018-06-04T15:17:31.634Z,12.65
2018-06-04T15:19:59.971Z,13.45
2018-06-04T15:22:28.340Z,12.90
2018-06-04T15:24:56.633Z,13.53
2018-06-04T15:27:25.269Z,14.98
2018-06-04T15:29:53.582Z,13.20
2018-06-04T15:32:21.915Z,13.78
2018-06-04T15:34:50.201Z,14.68
2018-06-04T15:37:18.467Z,13.43
2018-06-04T15:39:46.769Z,14.00
2018-06-04T15:42:15.067Z,13.03
2018-06-04T15:44:43.438Z,12.45
2018-06-04T15:47:11.977Z,14.98
2018-06-04T15:49:40.367Z,15.80
2018-06-04T15:52:08.757Z,15.38
2018-06-04T15:54:37.133Z,14.75
2018-06-04T15:57:05.455Z,14.70
2018-06-04T15:59:33.842Z,13.98
2018-06-04T16:02:02.319Z,15.70
2018-06-04T16:04:30.781Z,15.38
2018-06-04T16:06:59.108Z,14.65
2018-06-04T16:09:27.510Z,15.32
2018-06-04T16:11:56.006Z,15.10
2018-06-04T16:14:24.395Z,14.68
2018-06-04T16:16:52.672Z,17.17
2018-06-04T16:19:33.251Z,16.75
2018-06-04T16:22:01.624Z,17.20
2018-06-04T16:24:29.939Z,16.42
2018-06-04T16:26:58.574Z,15.43
2018-06-04T16:29:27.014Z,16.87
2018-06-04T16:31:55.280Z,16.15
2018-06-04T16:34:23.599Z,18.65
2018-06-04T16:36:52.160Z,16.80
2018-06-04T16:39:20.521Z,16.97
2018-06-04T16:41:48.974Z,16.75
2018-06-04T16:44:17.396Z,17.12
2018-06-04T16:59:26.834Z,16.90
2018-06-04T17:01:55.175Z,16.73
2018-06-04T17:04:23.443Z,16.85
2018-06-04T17:06:51.730Z,24.92
2018-06-04T17:09:19.993Z,18.37
2018-06-04T17:11:48.284Z,18.57
2018-06-04T17:14:16.788Z,18.23
2018-06-04T17:16:45.090Z,19.15
2018-06-04T17:19:13.380Z,19.80
2018-06-04T17:21:41.791Z,20.75
2018-06-04T17:24:10.123Z,18.45
2018-06-04T17:26:38.399Z,18.57
2018-06-04T17:29:06.689Z,19.52
2018-06-04T17:31:34.982Z,19.10
2018-06-04T17:34:03.294Z,19.57
2018-06-04T17:36:31.575Z,20.57
2018-06-04T17:38:59.856Z,19.85
2018-06-04T17:41:28.258Z,19.05
2018-06-04T17:43:56.529Z,20.92
2018-06-04T17:46:24.851Z,20.48
2018-06-04T17:48:53.204Z,20.62
2018-06-04T17:51:21.505Z,20.55
2018-06-04T17:53:49.907Z,21.40
2018-06-04T17:56:18.281Z,21.10
2018-06-04T17:58:47.114Z,20.68
2018-06-04T18:01:15.429Z,21.12
2018-06-04T18:03:43.706Z,19.40
2018-06-04T18:06:12.024Z,21.95
2018-06-04T18:08:40.281Z,23.98
2018-06-04T18:11:08.562Z,23.10
2018-06-04T18:13:36.973Z,23.87
2018-06-04T18:16:05.375Z,21.77
2018-06-04T18:18:33.654Z,24.15
2018-06-04T18:21:01.937Z,22.73
2018-06-04T18:23:30.261Z,21.48
2018-06-04T18:25:58.577Z,22.00
2018-06-04T18:28:26.846Z,22.73
2018-06-04T18:30:55.139Z,21.40
2018-06-04T18:33:23.477Z,21.85
2018-06-04T18:35:51.770Z,21.52
2018-06-04T18:38:20.058Z,22.95
2018-06-04T18:40:48.428Z,23.40
2018-06-04T18:43:16.730Z,22.77
2018-06-04T18:45:45.006Z,21.97
2018-06-04T18:48:13.371Z,23.40
2018-06-04T18:50:41.658Z,24.98
2018-06-04T18:53:09.950Z,23.77
2018-06-04T18:55:38.327Z,24.02
2018-06-04T18:58:06.650Z,24.18
2018-06-04T19:00:34.906Z,27.73
2018-06-04T19:03:03.216Z,23.57
2018-06-04T19:05:31.594Z,27.98
2018-06-04T19:07:59.894Z,25.48
2018-06-04T19:10:28.194Z,26.17
2018-06-04T19:12:56.515Z,25.88
2018-06-04T19:15:24.875Z,26.93
2018-06-04T19:17:53.278Z,26.90
2018-06-04T19:20:21.679Z,26.68
2018-06-04T19:22:50.139Z,27.22
2018-06-04T19:25:18.545Z,26.87
2018-06-04T19:27:46.829Z,23.77
2018-06-04T19:30:15.435Z,24.05
2018-06-04T19:32:44.074Z,27.52
2018-06-04T19:35:12.670Z,22.87
2018-06-04T19:37:41.546Z,24.27
2018-06-04T19:40:09.912Z,25.90
2018-06-04T19:42:38.270Z,25.85
2018-06-04T19:45:06.682Z,25.90
2018-06-04T19:47:35.040Z,23.83
2018-06-04T19:50:03.310Z,25.40
2018-06-04T19:52:31.598Z,23.23
2018-06-04T19:54:59.859Z,21.85
2018-06-04T19:57:28.174Z,27.65
2018-06-04T19:59:56.773Z,23.80
2018-06-04T20:02:25.453Z,23.50
2018-06-04T20:04:53.755Z,26.43
2018-06-04T20:07:22.052Z,25.27
2018-06-04T20:09:50.367Z,24.50
2018-06-04T20:12:18.650Z,27.30
2018-06-04T20:14:46.987Z,26.80
2018-06-04T20:17:15.412Z,24.27
2018-06-04T20:19:44.293Z,25.20
2018-06-04T20:22:12.560Z,25.93
2018-06-04T20:24:40.863Z,26.50
2018-06-04T20:27:09.140Z,23.03
2018-06-04T20:29:37.913Z,24.83
2018-06-04T20:32:06.610Z,23.70
2018-06-04T20:34:34.966Z,24.30
2018-06-04T20:37:03.341Z,23.73
2018-06-04T20:39:31.975Z,26.63
2018-06-04T20:42:00.240Z,26.90
2018-06-04T20:44:29.015Z,26.60
2018-06-04T20:46:57.653Z,28.50
2018-06-04T20:49:26.011Z,27.67
2018-06-04T20:51:54.497Z,26.70
2018-06-04T20:54:22.839Z,29.17
2018-06-04T20:56:51.215Z,26.60
2018-06-04T20:59:19.510Z,27.13
2018-06-04T21:01:48.727Z,29.37
2018-06-04T21:04:17.015Z,27.40
2018-06-04T21:06:45.380Z,27.23
2018-06-04T21:09:17.091Z,25.37
2018-06-04T21:11:45.379Z,31.27
2018-06-04T21:14:14.230Z,28.47
2018-06-04T21:16:42.653Z,25.43
2018-06-04T21:19:10.971Z,24.73
2018-06-04T21:21:39.286Z,30.37
2018-06-04T21:24:07.646Z,26.37
2018-06-04T21:26:35.915Z,25.90
2018-06-04T21:29:04.182Z,27.03
2018-06-04T21:31:32.594Z,23.23
2018-06-04T21:34:00.891Z,27.50
2018-06-04T21:36:29.170Z,28.23
2018-06-04T21:38:57.446Z,30.40
2018-06-04T21:41:25.757Z,30.93
2018-06-04T21:43:54.042Z,26.60
2018-06-04T21:46:22.464Z,32.07
2018-06-04T21:48:50.744Z,29.93
2018-06-04T21:51:19.045Z,29.03
2018-06-04T21:53:47.327Z,26.20
2018-06-04T21:56:15.637Z,26.20
2018-06-04T21:58:43.947Z,28.73
2018-06-04T22:01:12.263Z,27.27
2018-06-04T22:03:40.546Z,27.10
2018-06-04T22:06:08.843Z,28.97
2018-06-04T22:08:37.139Z,30.53
2018-06-04T22:11:05.451Z,29.10
2018-06-04T22:13:33.730Z,33.07
2018-06-04T22:16:02.070Z,31.03
2018-06-04T22:18:30.380Z,34.97
2018-06-04T22:20:58.706Z,33.20
2018-06-04T22:23:26.966Z,31.43
2018-06-04T22:25:55.274Z,33.07
2018-06-04T22:28:23.559Z,32.23
2018-06-04T22:30:51.901Z,33.67
2018-06-04T22:33:20.223Z,35.00
2018-06-04T22:35:48.513Z,40.60
2018-06-04T22:38:16.777Z,42.13
2018-06-04T22:40:45.067Z,44.53
2018-06-04T22:43:13.322Z,45.43
2018-06-04T22:45:41.606Z,42.90
2018-06-04T22:48:09.874Z,41.50
2018-06-04T22:50:38.162Z,38.57
2018-06-04T22:53:06.438Z,46.03
2018-06-04T22:55:34.729Z,46.27
2018-06-04T22:58:03.006Z,47.47
2018-06-04T23:00:34.318Z,51.80
2018-06-04T23:03:02.804Z,54.10
2018-06-04T23:05:31.176Z,55.00
2018-06-04T23:07:59.501Z,59.30
2018-06-04T23:10:27.770Z,54.83
2018-06-04T23:12:56.051Z,64.00
2018-06-04T23:15:24.324Z,57.10
2018-06-04T23:17:52.713Z,54.50
2018-06-04T23:20:20.998Z,58.10
2018-06-04T23:22:49.353Z,60.10
2018-06-04T23:25:17.636Z,61.30
2018-06-04T23:27:45.964Z,59.13
2018-06-04T23:30:14.232Z,60.63
2018-06-04T23:32:42.588Z,64.70
2018-06-04T23:35:10.875Z,59.03
2018-06-04T23:37:39.233Z,60.53
2018-06-04T23:40:07.526Z,61.63
2018-06-04T23:42:35.823Z,58.67
2018-06-04T23:45:04.172Z,62.00
2018-06-04T23:47:32.502Z,65.47
2018-06-04T23:50:00.779Z,61.17
2018-06-04T23:52:29.079Z,62.07
2018-06-04T23:54:57.354Z,67.90
2018-06-04T23:57:26.239Z,64.00
2018-06-04T23:59:54.505Z,62.63
